sensor_id;sensor_type;location;lat;lon;timestamp;pressure;altitude;pressure_sealevel;temperature;humidity
58367;BME280;57745;42.524;12.052;2023-02-28T00:00:21;96294.94;;;11.60;51.22
58367;BME280;57745;42.524;12.052;2023-02-28T00:02:47;96292.75;;;11.42;50.63
58367;BME280;57745;42.524;12.052;2023-02-28T00:05:15;96296.13;;;11.59;51.24
58367;BME280;57745;42.524;12.052;2023-02-28T00:07:41;96291.81;;;11.36;50.59
58367;BME280;57745;42.524;12.052;2023-02-28T00:10:10;96285.38;;;11.68;51.08
58367;BME280;57745;42.524;12.052;2023-02-28T00:12:36;96274.81;;;11.70;50.76
58367;BME280;57745;42.524;12.052;2023-02-28T00:15:05;96276.03;;;11.56;51.04
58367;BME280;57745;42.524;12.052;2023-02-28T00:17:31;96277.75;;;11.63;50.85
58367;BME280;57745;42.524;12.052;2023-02-28T00:19:57;96274.09;;;11.44;50.89
58367;BME280;57745;42.524;12.052;2023-02-28T00:22:26;96276.56;;;11.76;50.57
58367;BME280;57745;42.524;12.052;2023-02-28T00:24:52;96278.22;;;11.61;50.70
58367;BME280;57745;42.524;12.052;2023-02-28T00:27:17;96281.56;;;11.65;50.79
58367;BME280;57745;42.524;12.052;2023-02-28T00:29:43;96275.03;;;11.50;50.80
58367;BME280;57745;42.524;12.052;2023-02-28T00:32:08;96279.28;;;11.64;50.47
58367;BME280;57745;42.524;12.052;2023-02-28T00:34:34;96281.13;;;11.54;50.93
58367;BME280;57745;42.524;12.052;2023-02-28T00:37:06;96277.00;;;11.62;50.67
58367;BME280;57745;42.524;12.052;2023-02-28T00:39:36;96272.66;;;11.65;51.11
58367;BME280;57745;42.524;12.052;2023-02-28T00:42:02;96267.44;;;11.58;50.61
58367;BME280;57745;42.524;12.052;2023-02-28T00:44:28;96264.75;;;11.45;50.71
58367;BME280;57745;42.524;12.052;2023-02-28T00:46:54;96268.00;;;11.27;51.23
58367;BME280;57745;42.524;12.052;2023-02-28T00:49:20;96270.19;;;11.45;51.59
58367;BME280;57745;42.524;12.052;2023-02-28T00:51:46;96266.94;;;11.37;51.13
58367;BME280;57745;42.524;12.052;2023-02-28T00:54:12;96260.41;;;11.35;50.26
58367;BME280;57745;42.524;12.052;2023-02-28T00:56:37;96262.22;;;11.38;50.80
58367;BME280;57745;42.524;12.052;2023-02-28T00:59:03;96268.56;;;11.35;50.92
58367;BME280;57745;42.524;12.052;2023-02-28T01:01:28;96265.84;;;11.47;50.71
58367;BME280;57745;42.524;12.052;2023-02-28T01:03:54;96274.84;;;11.44;51.44
58367;BME280;57745;42.524;12.052;2023-02-28T01:06:19;96277.56;;;11.44;51.16
58367;BME280;57745;42.524;12.052;2023-02-28T01:08:45;96268.22;;;11.33;51.11
58367;BME280;57745;42.524;12.052;2023-02-28T01:11:11;96278.06;;;11.65;50.92
58367;BME280;57745;42.524;12.052;2023-02-28T01:13:37;96274.94;;;11.66;50.56
58367;BME280;57745;42.524;12.052;2023-02-28T01:16:02;96271.56;;;11.62;51.00
58367;BME280;57745;42.524;12.052;2023-02-28T01:18:28;96267.56;;;11.54;51.07
58367;BME280;57745;42.524;12.052;2023-02-28T01:20:54;96268.00;;;11.52;51.41
58367;BME280;57745;42.524;12.052;2023-02-28T01:23:21;96269.81;;;11.68;50.52
58367;BME280;57745;42.524;12.052;2023-02-28T01:25:49;96269.84;;;11.56;50.79
58367;BME280;57745;42.524;12.052;2023-02-28T01:28:14;96259.84;;;11.40;50.83
58367;BME280;57745;42.524;12.052;2023-02-28T01:30:40;96248.03;;;11.46;50.65
58367;BME280;57745;42.524;12.052;2023-02-28T01:33:06;96251.34;;;11.63;50.69
58367;BME280;57745;42.524;12.052;2023-02-28T01:35:35;96250.28;;;11.61;50.53
58367;BME280;57745;42.524;12.052;2023-02-28T01:38:01;96256.78;;;11.63;50.63
58367;BME280;57745;42.524;12.052;2023-02-28T01:40:27;96251.25;;;11.54;50.73
58367;BME280;57745;42.524;12.052;2023-02-28T01:42:53;96245.84;;;11.41;51.31
58367;BME280;57745;42.524;12.052;2023-02-28T01:47:56;96238.88;;;11.53;50.66
58367;BME280;57745;42.524;12.052;2023-02-28T01:50:26;96243.22;;;11.38;51.12
58367;BME280;57745;42.524;12.052;2023-02-28T01:52:57;96248.44;;;11.45;50.85
58367;BME280;57745;42.524;12.052;2023-02-28T01:55:26;96251.38;;;11.38;51.00
58367;BME280;57745;42.524;12.052;2023-02-28T01:57:56;96251.69;;;11.52;51.13
58367;BME280;57745;42.524;12.052;2023-02-28T02:00:24;96242.59;;;11.46;51.08
58367;BME280;57745;42.524;12.052;2023-02-28T02:02:54;96241.69;;;11.62;51.09
58367;BME280;57745;42.524;12.052;2023-02-28T02:05:30;96249.63;;;11.69;49.81
58367;BME280;57745;42.524;12.052;2023-02-28T02:08:05;96243.47;;;11.43;51.23
58367;BME280;57745;42.524;12.052;2023-02-28T02:10:44;96240.97;;;11.49;50.74
58367;BME280;57745;42.524;12.052;2023-02-28T02:13:37;96247.09;;;11.75;50.37
58367;BME280;57745;42.524;12.052;2023-02-28T02:16:37;96248.00;;;11.59;50.16
58367;BME280;57745;42.524;12.052;2023-02-28T02:36:03;96234.44;;;11.59;51.41
58367;BME280;57745;42.524;12.052;2023-02-28T02:42:00;96240.63;;;11.60;51.20
58367;BME280;57745;42.524;12.052;2023-02-28T02:44:24;96240.59;;;11.72;50.48
58367;BME280;57745;42.524;12.052;2023-02-28T02:46:57;96237.03;;;11.50;50.77
58367;BME280;57745;42.524;12.052;2023-02-28T02:49:28;96235.84;;;11.38;50.94
58367;BME280;57745;42.524;12.052;2023-02-28T02:51:57;96238.25;;;11.49;50.88
58367;BME280;57745;42.524;12.052;2023-02-28T02:54:33;96237.50;;;11.48;50.88
58367;BME280;57745;42.524;12.052;2023-02-28T02:57:04;96233.03;;;11.42;49.84
58367;BME280;57745;42.524;12.052;2023-02-28T02:59:31;96229.44;;;11.45;51.16
58367;BME280;57745;42.524;12.052;2023-02-28T03:02:00;96236.50;;;11.30;51.12
58367;BME280;57745;42.524;12.052;2023-02-28T03:04:30;96224.44;;;11.56;51.44
58367;BME280;57745;42.524;12.052;2023-02-28T03:06:57;96221.59;;;11.60;51.01
58367;BME280;57745;42.524;12.052;2023-02-28T03:09:24;96210.63;;;11.50;51.00
58367;BME280;57745;42.524;12.052;2023-02-28T03:11:55;96213.06;;;11.36;51.73
58367;BME280;57745;42.524;12.052;2023-02-28T03:14:41;96218.34;;;11.52;50.80
58367;BME280;57745;42.524;12.052;2023-02-28T03:17:17;96224.56;;;11.27;51.62
58367;BME280;57745;42.524;12.052;2023-02-28T03:23:28;96226.41;;;11.43;51.46
58367;BME280;57745;42.524;12.052;2023-02-28T03:33:13;96230.97;;;11.46;51.05
58367;BME280;57745;42.524;12.052;2023-02-28T03:35:43;96230.97;;;11.46;50.79
58367;BME280;57745;42.524;12.052;2023-02-28T03:38:56;96230.22;;;11.33;51.07
58367;BME280;57745;42.524;12.052;2023-02-28T03:41:22;96228.91;;;11.37;51.29
58367;BME280;57745;42.524;12.052;2023-02-28T03:43:59;96226.72;;;11.58;49.77
58367;BME280;57745;42.524;12.052;2023-02-28T03:46:42;96224.22;;;11.38;50.45
58367;BME280;57745;42.524;12.052;2023-02-28T03:49:20;96223.78;;;11.27;51.29
58367;BME280;57745;42.524;12.052;2023-02-28T03:51:50;96222.91;;;11.55;50.77
58367;BME280;57745;42.524;12.052;2023-02-28T03:54:22;96230.84;;;11.49;50.83
58367;BME280;57745;42.524;12.052;2023-02-28T03:56:56;96218.91;;;11.47;50.60
58367;BME280;57745;42.524;12.052;2023-02-28T04:01:59;96222.50;;;11.44;50.05
58367;BME280;57745;42.524;12.052;2023-02-28T04:04:25;96225.44;;;11.49;50.43
58367;BME280;57745;42.524;12.052;2023-02-28T04:06:53;96223.69;;;11.43;51.05
58367;BME280;57745;42.524;12.052;2023-02-28T04:09:25;96229.13;;;11.30;51.11
58367;BME280;57745;42.524;12.052;2023-02-28T04:11:52;96229.13;;;11.30;49.78
58367;BME280;57745;42.524;12.052;2023-02-28T04:14:18;96230.09;;;11.49;50.35
58367;BME280;57745;42.524;12.052;2023-02-28T04:16:43;96230.97;;;11.21;51.13
58367;BME280;57745;42.524;12.052;2023-02-28T04:19:11;96224.03;;;11.20;51.22
58367;BME280;57745;42.524;12.052;2023-02-28T04:21:42;96219.78;;;11.31;50.42
58367;BME280;57745;42.524;12.052;2023-02-28T04:24:11;96224.25;;;11.12;51.22
58367;BME280;57745;42.524;12.052;2023-02-28T04:26:47;96234.97;;;11.41;50.59
58367;BME280;57745;42.524;12.052;2023-02-28T04:29:14;96215.44;;;11.34;49.88
58367;BME280;57745;42.524;12.052;2023-02-28T04:31:43;96225.75;;;11.39;50.50
58367;BME280;57745;42.524;12.052;2023-02-28T04:34:08;96227.84;;;11.22;50.76
58367;BME280;57745;42.524;12.052;2023-02-28T04:36:34;96228.47;;;11.39;50.52
58367;BME280;57745;42.524;12.052;2023-02-28T04:38:59;96224.88;;;11.42;50.83
58367;BME280;57745;42.524;12.052;2023-02-28T04:41:25;96228.16;;;11.37;50.92
58367;BME280;57745;42.524;12.052;2023-02-28T04:43:51;96232.84;;;11.24;50.48
58367;BME280;57745;42.524;12.052;2023-02-28T04:46:18;96228.03;;;11.15;50.85
58367;BME280;57745;42.524;12.052;2023-02-28T04:48:44;96238.69;;;11.47;50.33
58367;BME280;57745;42.524;12.052;2023-02-28T04:51:12;96239.53;;;11.44;50.85
58367;BME280;57745;42.524;12.052;2023-02-28T04:53:39;96239.13;;;11.46;50.56
58367;BME280;57745;42.524;12.052;2023-02-28T04:56:06;96248.97;;;11.52;50.06
58367;BME280;57745;42.524;12.052;2023-02-28T04:58:32;96248.03;;;11.34;50.25
58367;BME280;57745;42.524;12.052;2023-02-28T05:01:07;96243.56;;;11.27;50.69
58367;BME280;57745;42.524;12.052;2023-02-28T05:03:39;96247.94;;;11.37;49.98
58367;BME280;57745;42.524;12.052;2023-02-28T05:06:08;96251.16;;;11.45;50.33
58367;BME280;57745;42.524;12.052;2023-02-28T05:08:33;96251.19;;;11.20;50.30
58367;BME280;57745;42.524;12.052;2023-02-28T05:10:59;96252.03;;;11.29;50.14
58367;BME280;57745;42.524;12.052;2023-02-28T05:13:29;96240.84;;;11.27;50.28
58367;BME280;57745;42.524;12.052;2023-02-28T05:15:55;96245.75;;;11.32;50.12
58367;BME280;57745;42.524;12.052;2023-02-28T05:18:20;96241.50;;;11.19;51.02
58367;BME280;57745;42.524;12.052;2023-02-28T05:20:46;96245.84;;;11.16;50.39
58367;BME280;57745;42.524;12.052;2023-02-28T05:23:12;96244.88;;;11.23;50.97
58367;BME280;57745;42.524;12.052;2023-02-28T05:25:39;96253.03;;;11.35;49.71
58367;BME280;57745;42.524;12.052;2023-02-28T05:28:05;96255.19;;;11.40;50.47
58367;BME280;57745;42.524;12.052;2023-02-28T05:30:31;96248.78;;;11.34;50.60
58367;BME280;57745;42.524;12.052;2023-02-28T05:32:57;96253.13;;;11.19;50.22
58367;BME280;57745;42.524;12.052;2023-02-28T05:35:23;96250.31;;;11.23;51.12
58367;BME280;57745;42.524;12.052;2023-02-28T05:37:49;96247.94;;;11.25;50.47
58367;BME280;57745;42.524;12.052;2023-02-28T05:40:15;96254.22;;;11.22;50.72
58367;BME280;57745;42.524;12.052;2023-02-28T05:42:41;96248.88;;;11.18;49.81
58367;BME280;57745;42.524;12.052;2023-02-28T05:45:07;96243.03;;;11.07;50.74
58367;BME280;57745;42.524;12.052;2023-02-28T05:47:33;96242.50;;;11.25;50.59
58367;BME280;57745;42.524;12.052;2023-02-28T05:49:59;96248.22;;;11.52;50.59
58367;BME280;57745;42.524;12.052;2023-02-28T05:52:25;96255.41;;;11.21;50.43
58367;BME280;57745;42.524;12.052;2023-02-28T05:54:50;96253.34;;;11.37;49.95
58367;BME280;57745;42.524;12.052;2023-02-28T05:57:16;96256.38;;;11.27;50.14
58367;BME280;57745;42.524;12.052;2023-02-28T05:59:41;96248.03;;;11.34;50.33
58367;BME280;57745;42.524;12.052;2023-02-28T06:02:13;96253.78;;;11.36;50.57
58367;BME280;57745;42.524;12.052;2023-02-28T06:04:39;96259.66;;;11.47;49.93
58367;BME280;57745;42.524;12.052;2023-02-28T06:07:06;96259.22;;;11.48;49.94
58367;BME280;57745;42.524;12.052;2023-02-28T06:09:32;96258.13;;;11.33;50.52
58367;BME280;57745;42.524;12.052;2023-02-28T06:11:58;96259.53;;;11.38;50.34
58367;BME280;57745;42.524;12.052;2023-02-28T06:14:24;96256.94;;;11.22;50.11
58367;BME280;57745;42.524;12.052;2023-02-28T06:16:50;96263.47;;;11.24;50.61
58367;BME280;57745;42.524;12.052;2023-02-28T06:19:16;96263.00;;;11.26;50.56
58367;BME280;57745;42.524;12.052;2023-02-28T06:21:41;96272.56;;;11.30;50.40
58367;BME280;57745;42.524;12.052;2023-02-28T06:24:07;96275.50;;;11.36;50.54
58367;BME280;57745;42.524;12.052;2023-02-28T06:26:33;96276.81;;;11.44;50.15
58367;BME280;57745;42.524;12.052;2023-02-28T06:28:58;96283.31;;;11.59;50.71
58367;BME280;57745;42.524;12.052;2023-02-28T06:31:25;96276.69;;;11.35;50.65
58367;BME280;57745;42.524;12.052;2023-02-28T06:33:51;96279.41;;;11.35;50.43
58367;BME280;57745;42.524;12.052;2023-02-28T06:36:17;96280.28;;;11.32;50.20
58367;BME280;57745;42.524;12.052;2023-02-28T06:38:43;96284.63;;;11.42;50.56
58367;BME280;57745;42.524;12.052;2023-02-28T06:41:10;96282.88;;;11.23;51.31
58367;BME280;57745;42.524;12.052;2023-02-28T06:43:39;96284.41;;;11.24;50.72
58367;BME280;57745;42.524;12.052;2023-02-28T06:46:07;96284.28;;;11.27;50.75
58367;BME280;57745;42.524;12.052;2023-02-28T06:48:34;96278.75;;;11.31;49.92
58367;BME280;57745;42.524;12.052;2023-02-28T06:51:07;96287.66;;;11.31;50.64
58367;BME280;57745;42.524;12.052;2023-02-28T06:53:33;96285.81;;;11.41;49.73
58367;BME280;57745;42.524;12.052;2023-02-28T06:55:59;96281.13;;;11.29;51.14
58367;BME280;57745;42.524;12.052;2023-02-28T06:58:25;96282.13;;;11.22;50.67
58367;BME280;57745;42.524;12.052;2023-02-28T07:00:52;96287.97;;;11.21;51.09
58367;BME280;57745;42.524;12.052;2023-02-28T07:03:18;96282.47;;;11.37;50.12
58367;BME280;57745;42.524;12.052;2023-02-28T07:05:44;96285.28;;;11.33;51.21
58367;BME280;57745;42.524;12.052;2023-02-28T07:08:10;96284.28;;;11.27;50.89
58367;BME280;57745;42.524;12.052;2023-02-28T07:10:39;96281.81;;;11.33;51.10
58367;BME280;57745;42.524;12.052;2023-02-28T07:13:07;96287.44;;;11.38;51.36
58367;BME280;57745;42.524;12.052;2023-02-28T07:15:33;96279.50;;;11.44;51.63
58367;BME280;57745;42.524;12.052;2023-02-28T07:17:59;96280.03;;;11.39;51.51
58367;BME280;57745;42.524;12.052;2023-02-28T07:20:24;96279.19;;;11.42;51.72
58367;BME280;57745;42.524;12.052;2023-02-28T07:22:51;96277.31;;;11.51;50.86
58367;BME280;57745;42.524;12.052;2023-02-28T07:25:28;96281.69;;;11.36;51.66
58367;BME280;57745;42.524;12.052;2023-02-28T07:27:55;96283.00;;;11.44;51.38
58367;BME280;57745;42.524;12.052;2023-02-28T07:30:21;96283.09;;;11.41;51.63
58367;BME280;57745;42.524;12.052;2023-02-28T07:32:47;96277.78;;;11.25;51.51
58367;BME280;57745;42.524;12.052;2023-02-28T07:35:12;96268.31;;;11.42;51.19
58367;BME280;57745;42.524;12.052;2023-02-28T07:37:41;96267.47;;;11.45;51.15
58367;BME280;57745;42.524;12.052;2023-02-28T07:40:08;96271.03;;;11.55;50.70
58367;BME280;57745;42.524;12.052;2023-02-28T07:42:35;96271.38;;;11.44;51.30
58367;BME280;57745;42.524;12.052;2023-02-28T07:45:01;96269.63;;;11.50;50.82
58367;BME280;57745;42.524;12.052;2023-02-28T07:47:29;96277.88;;;11.59;51.70
58367;BME280;57745;42.524;12.052;2023-02-28T07:49:54;96269.31;;;11.48;51.53
58367;BME280;57745;42.524;12.052;2023-02-28T07:52:20;96260.75;;;11.37;51.92
58367;BME280;57745;42.524;12.052;2023-02-28T07:54:45;96272.66;;;11.52;51.54
58367;BME280;57745;42.524;12.052;2023-02-28T07:57:10;96265.06;;;11.47;51.71
58367;BME280;57745;42.524;12.052;2023-02-28T07:59:36;96268.97;;;11.46;51.73
58367;BME280;57745;42.524;12.052;2023-02-28T08:02:01;96266.03;;;11.53;51.98
58367;BME280;57745;42.524;12.052;2023-02-28T08:04:27;96266.38;;;11.55;51.51
58367;BME280;57745;42.524;12.052;2023-02-28T08:06:54;96271.34;;;11.69;51.36
58367;BME280;57745;42.524;12.052;2023-02-28T08:09:21;96262.22;;;11.50;52.18
58367;BME280;57745;42.524;12.052;2023-02-28T08:11:47;96268.22;;;11.58;51.80
58367;BME280;57745;42.524;12.052;2023-02-28T08:14:12;96268.00;;;11.52;52.29
58367;BME280;57745;42.524;12.052;2023-02-28T08:16:38;96272.22;;;11.66;51.99
58367;BME280;57745;42.524;12.052;2023-02-28T08:19:04;96274.94;;;11.53;52.17
58367;BME280;57745;42.524;12.052;2023-02-28T08:21:30;96270.91;;;11.71;52.13
58367;BME280;57745;42.524;12.052;2023-02-28T08:23:55;96278.84;;;11.65;51.85
58367;BME280;57745;42.524;12.052;2023-02-28T08:26:22;96280.59;;;11.72;52.46
58367;BME280;57745;42.524;12.052;2023-02-28T08:28:47;96278.97;;;11.74;51.96
58367;BME280;57745;42.524;12.052;2023-02-28T08:31:14;96283.41;;;11.81;51.41
58367;BME280;57745;42.524;12.052;2023-02-28T08:33:40;96279.81;;;11.71;52.52
58367;BME280;57745;42.524;12.052;2023-02-28T08:36:07;96278.75;;;11.81;52.33
58367;BME280;57745;42.524;12.052;2023-02-28T08:38:33;96277.56;;;11.82;51.64
58367;BME280;57745;42.524;12.052;2023-02-28T08:41:00;96282.75;;;11.77;52.13
58367;BME280;57745;42.524;12.052;2023-02-28T08:43:27;96281.03;;;11.83;51.73
58367;BME280;57745;42.524;12.052;2023-02-28T08:45:54;96281.78;;;11.83;51.65
58367;BME280;57745;42.524;12.052;2023-02-28T08:48:25;96285.38;;;11.80;52.33
58367;BME280;57745;42.524;12.052;2023-02-28T08:51:09;96276.69;;;11.85;52.48
58367;BME280;57745;42.524;12.052;2023-02-28T08:53:38;96281.34;;;11.85;52.55
58367;BME280;57745;42.524;12.052;2023-02-28T08:56:13;96280.81;;;11.77;52.11
58367;BME280;57745;42.524;12.052;2023-02-28T08:58:39;96281.97;;;11.89;52.39
58367;BME280;57745;42.524;12.052;2023-02-28T09:01:13;96282.97;;;11.82;52.16
58367;BME280;57745;42.524;12.052;2023-02-28T09:03:41;96285.03;;;11.78;52.57
58367;BME280;57745;42.524;12.052;2023-02-28T09:06:08;96282.34;;;11.78;52.76
58367;BME280;57745;42.524;12.052;2023-02-28T09:08:34;96293.84;;;11.95;52.14
58367;BME280;57745;42.524;12.052;2023-02-28T09:11:00;96289.66;;;12.03;51.81
58367;BME280;57745;42.524;12.052;2023-02-28T09:13:27;96289.38;;;11.88;52.75
58367;BME280;57745;42.524;12.052;2023-02-28T09:15:53;96288.31;;;11.73;53.23
58367;BME280;57745;42.524;12.052;2023-02-28T09:18:20;96273.50;;;11.87;52.95
58367;BME280;57745;42.524;12.052;2023-02-28T09:20:45;96284.78;;;12.11;53.12
58367;BME280;57745;42.524;12.052;2023-02-28T09:23:12;96277.94;;;12.06;52.80
58367;BME280;57745;42.524;12.052;2023-02-28T09:25:44;96271.09;;;12.02;52.91
58367;BME280;57745;42.524;12.052;2023-02-28T09:28:10;96277.56;;;12.17;52.73
58367;BME280;57745;42.524;12.052;2023-02-28T09:30:36;96280.50;;;12.22;53.19
58367;BME280;57745;42.524;12.052;2023-02-28T09:33:02;96275.00;;;12.35;53.03
58367;BME280;57745;42.524;12.052;2023-02-28T09:35:27;96275.50;;;12.21;52.84
58367;BME280;57745;42.524;12.052;2023-02-28T09:37:53;96269.47;;;12.26;53.09
58367;BME280;57745;42.524;12.052;2023-02-28T09:40:20;96264.94;;;12.23;53.41
58367;BME280;57745;42.524;12.052;2023-02-28T09:42:49;96262.53;;;12.25;53.17
58367;BME280;57745;42.524;12.052;2023-02-28T09:45:30;96261.16;;;12.42;53.48
58367;BME280;57745;42.524;12.052;2023-02-28T09:48:03;96271.34;;;12.51;53.94
58367;BME280;57745;42.524;12.052;2023-02-28T09:53:08;96263.06;;;12.54;53.96
58367;BME280;57745;42.524;12.052;2023-02-28T09:55:43;96268.75;;;12.47;54.49
58367;BME280;57745;42.524;12.052;2023-02-28T09:58:19;96284.25;;;12.59;54.24
58367;BME280;57745;42.524;12.052;2023-02-28T10:00:54;96273.44;;;12.47;54.41
58367;BME280;57745;42.524;12.052;2023-02-28T10:03:34;96261.41;;;12.57;54.45
58367;BME280;57745;42.524;12.052;2023-02-28T10:06:12;96263.31;;;12.69;54.28
58367;BME280;57745;42.524;12.052;2023-02-28T10:11:36;96262.56;;;12.69;54.44
58367;BME280;57745;42.524;12.052;2023-02-28T10:14:16;96258.94;;;12.72;54.09
58367;BME280;57745;42.524;12.052;2023-02-28T10:16:49;96257.34;;;12.83;54.42
58367;BME280;57745;42.524;12.052;2023-02-28T10:19:26;96260.44;;;12.94;53.27
58367;BME280;57745;42.524;12.052;2023-02-28T10:22:14;96254.19;;;12.85;53.42
58367;BME280;57745;42.524;12.052;2023-02-28T10:24:44;96259.16;;;12.86;53.35
58367;BME280;57745;42.524;12.052;2023-02-28T10:27:19;96246.81;;;13.16;52.62
58367;BME280;57745;42.524;12.052;2023-02-28T10:29:57;96258.81;;;12.97;52.91
58367;BME280;57745;42.524;12.052;2023-02-28T10:32:28;96264.91;;;13.10;53.03
58367;BME280;57745;42.524;12.052;2023-02-28T10:35:20;96270.75;;;13.21;52.72
58367;BME280;57745;42.524;12.052;2023-02-28T10:37:51;96249.53;;;13.16;53.32
58367;BME280;57745;42.524;12.052;2023-02-28T10:45:25;96252.69;;;13.15;53.68
58367;BME280;57745;42.524;12.052;2023-02-28T10:47:57;96252.34;;;13.13;52.91
58367;BME280;57745;42.524;12.052;2023-02-28T10:50:34;96260.47;;;13.25;52.83
58367;BME280;57745;42.524;12.052;2023-02-28T10:56:04;96246.91;;;13.13;53.65
58367;BME280;57745;42.524;12.052;2023-02-28T10:59:02;96246.50;;;13.14;52.68
58367;BME280;57745;42.524;12.052;2023-02-28T11:09:39;96249.97;;;13.15;53.60
58367;BME280;57745;42.524;12.052;2023-02-28T11:12:23;96243.19;;;13.19;53.81
58367;BME280;57745;42.524;12.052;2023-02-28T11:15:02;96243.13;;;13.10;52.72
58367;BME280;57745;42.524;12.052;2023-02-28T11:17:30;96250.88;;;12.90;52.52
58367;BME280;57745;42.524;12.052;2023-02-28T11:20:05;96245.66;;;13.05;53.49
58367;BME280;57745;42.524;12.052;2023-02-28T11:22:36;96242.56;;;13.15;52.88
58367;BME280;57745;42.524;12.052;2023-02-28T11:25:08;96234.44;;;12.93;53.99
58367;BME280;57745;42.524;12.052;2023-02-28T11:27:52;96231.34;;;13.13;53.66
58367;BME280;57745;42.524;12.052;2023-02-28T11:30:30;96220.78;;;13.15;53.23
58367;BME280;57745;42.524;12.052;2023-02-28T11:32:57;96222.34;;;12.94;53.88
58367;BME280;57745;42.524;12.052;2023-02-28T11:35:27;96221.28;;;13.01;52.87
58367;BME280;57745;42.524;12.052;2023-02-28T11:37:55;96223.13;;;13.04;52.30
58367;BME280;57745;42.524;12.052;2023-02-28T11:43:06;96210.59;;;13.07;53.47
58367;BME280;57745;42.524;12.052;2023-02-28T11:48:32;96204.09;;;13.13;53.43
58367;BME280;57745;42.524;12.052;2023-02-28T11:51:17;96205.31;;;13.12;53.32
58367;BME280;57745;42.524;12.052;2023-02-28T11:56:43;96196.78;;;13.01;54.03
58367;BME280;57745;42.524;12.052;2023-02-28T12:04:47;96189.56;;;13.07;53.78
58367;BME280;57745;42.524;12.052;2023-02-28T12:11:04;96183.81;;;13.05;54.02
58367;BME280;57745;42.524;12.052;2023-02-28T12:19:21;96162.84;;;13.15;53.64
58367;BME280;57745;42.524;12.052;2023-02-28T12:21:53;96156.31;;;13.12;53.28
58367;BME280;57745;42.524;12.052;2023-02-28T12:27:10;96153.03;;;13.26;53.27
58367;BME280;57745;42.524;12.052;2023-02-28T12:29:50;96138.97;;;13.19;52.69
58367;BME280;57745;42.524;12.052;2023-02-28T12:32:36;96145.63;;;13.27;53.12
58367;BME280;57745;42.524;12.052;2023-02-28T12:35:13;96143.81;;;13.24;52.54
58367;BME280;57745;42.524;12.052;2023-02-28T12:37:47;96135.16;;;13.16;54.17
58367;BME280;57745;42.524;12.052;2023-02-28T12:40:21;96128.41;;;13.30;52.96
58367;BME280;57745;42.524;12.052;2023-02-28T12:42:53;96131.59;;;13.38;52.77
58367;BME280;57745;42.524;12.052;2023-02-28T12:45:24;96131.88;;;13.30;52.94
58367;BME280;57745;42.524;12.052;2023-02-28T12:48:06;96122.78;;;13.24;51.43
58367;BME280;57745;42.524;12.052;2023-02-28T12:50:33;96127.00;;;13.16;53.17
58367;BME280;57745;42.524;12.052;2023-02-28T13:01:20;96119.78;;;13.41;52.08
58367;BME280;57745;42.524;12.052;2023-02-28T13:04:21;96129.41;;;13.14;52.36
58367;BME280;57745;42.524;12.052;2023-02-28T13:09:55;96113.41;;;13.25;53.36
58367;BME280;57745;42.524;12.052;2023-02-28T13:12:22;96116.44;;;13.18;53.32
58367;BME280;57745;42.524;12.052;2023-02-28T13:14:48;96107.38;;;13.40;53.18
58367;BME280;57745;42.524;12.052;2023-02-28T13:17:22;96110.69;;;13.25;53.65
58367;BME280;57745;42.524;12.052;2023-02-28T13:22:40;96107.63;;;13.14;53.59
58367;BME280;57745;42.524;12.052;2023-02-28T13:27:54;96095.06;;;13.08;54.04
58367;BME280;57745;42.524;12.052;2023-02-28T13:33:34;96098.72;;;13.23;52.98
58367;BME280;57745;42.524;12.052;2023-02-28T13:38:44;96101.28;;;13.17;54.19
58367;BME280;57745;42.524;12.052;2023-02-28T13:44:19;96096.75;;;13.23;53.44
58367;BME280;57745;42.524;12.052;2023-02-28T14:05:38;96087.38;;;13.15;53.49
58367;BME280;57745;42.524;12.052;2023-02-28T14:08:24;96073.88;;;13.12;53.46
58367;BME280;57745;42.524;12.052;2023-02-28T14:11:02;96074.69;;;13.21;52.82
58367;BME280;57745;42.524;12.052;2023-02-28T14:13:45;96075.28;;;13.25;52.46
58367;BME280;57745;42.524;12.052;2023-02-28T14:16:17;96066.66;;;13.27;53.26
58367;BME280;57745;42.524;12.052;2023-02-28T14:25:11;96070.00;;;13.22;52.75
58367;BME280;57745;42.524;12.052;2023-02-28T14:33:01;96058.47;;;13.18;51.67
58367;BME280;57745;42.524;12.052;2023-02-28T14:38:42;96063.63;;;13.16;51.99
58367;BME280;57745;42.524;12.052;2023-02-28T14:41:24;96065.44;;;13.19;52.22
58367;BME280;57745;42.524;12.052;2023-02-28T14:43:59;96062.09;;;13.24;51.65
58367;BME280;57745;42.524;12.052;2023-02-28T14:46:30;96064.03;;;13.05;52.34
58367;BME280;57745;42.524;12.052;2023-02-28T14:49:00;96057.41;;;13.24;52.54
58367;BME280;57745;42.524;12.052;2023-02-28T14:51:25;96057.53;;;13.12;52.52
58367;BME280;57745;42.524;12.052;2023-02-28T14:53:57;96061.66;;;13.16;52.37
58367;BME280;57745;42.524;12.052;2023-02-28T14:56:27;96057.41;;;13.15;52.29
58367;BME280;57745;42.524;12.052;2023-02-28T14:58:56;96057.41;;;13.24;51.76
58367;BME280;57745;42.524;12.052;2023-02-28T15:01:24;96056.53;;;13.27;52.25
58367;BME280;57745;42.524;12.052;2023-02-28T15:04:05;96061.94;;;13.09;52.29
58367;BME280;57745;42.524;12.052;2023-02-28T15:06:32;96058.91;;;13.07;52.24
58367;BME280;57745;42.524;12.052;2023-02-28T15:09:09;96068.13;;;13.10;52.31
58367;BME280;57745;42.524;12.052;2023-02-28T15:11:36;96067.38;;;13.09;52.06
58367;BME280;57745;42.524;12.052;2023-02-28T15:14:02;96058.72;;;13.02;52.47
58367;BME280;57745;42.524;12.052;2023-02-28T15:16:30;96063.44;;;13.10;52.69
58367;BME280;57745;42.524;12.052;2023-02-28T15:19:00;96066.16;;;13.10;52.45
58367;BME280;57745;42.524;12.052;2023-02-28T15:21:33;96057.06;;;13.13;53.02
58367;BME280;57745;42.524;12.052;2023-02-28T15:24:18;96051.69;;;13.22;52.66
58367;BME280;57745;42.524;12.052;2023-02-28T15:26:54;96043.63;;;13.10;52.81